Tiempo atmosférico en la estación meteorológica de Zumarraga, Gipuzkoa (420 m.)



Fecha
DESCASC
Temp. máxima en grados centígrados (hora)
DESCASC
Temp. mínima en grados centígrados (hora)
DESCASC
Temp. media en grados centígrados
DESCASC
Racha de viento máxima en m/sg (hora)
DESCASC
Velocidad máxima media en intervalos de 10 minutos(hora)
DESCASC
Precipitaciones diarias en mm
DESCASC
Precipitaciones de 00:00 a 06:00 en mm
DESCASC
Precipitaciones de 06:00 a 12:00 en mm
DESCASC
Precipitaciones de 12:00 a 18:00 en mm
DESCASC
Precipitaciones de 18:00 a 24:00 en mm
DESCASC
18-08-2019 22.6 (12:10) 13.5 (23:50) 18.1 7.5 (09:00) 4.72 (10:50) 0.9 0 0 0 0.9
17-08-2019 29.4 (15:10) 11 (07:20) 20.2 5.56 (15:10) 2.78 (17:10) 0 0 0 0 0
16-08-2019 29 (16:10) 8.9 (07:00) 18.9 6.11 (17:50) 3.33 (17:50) 0 0 0 0 0
15-08-2019 19.9 (14:00) 12.4 (00:00) 16.1 7.5 (07:20) 3.61 (07:20) 1.4 0.9 0.5 0 0
14-08-2019 26 (15:40) 8.3 (00:00) 17.2 8.06 (16:40) 3.89 (16:50) 0 0 0 0 0
13-08-2019 19.8 (15:50) 11 (00:00) 15.4 5.83 (17:10) 2.5 (17:20) 0 0 0 0 0
12-08-2019 18.2 (15:40) 10.3 (00:00) 14.3 10.83 (11:00) 6.11 (11:00) 2.1 0 0 0.2 1.9
11-08-2019 18.4 (16:40) 13.7 (00:00) 16 7.78 (07:10) 4.17 (07:10) 19.4 7.9 11 0.1 0.4
10-08-2019 20.8 (15:00) 14.5 (00:00) 17.6 6.67 (17:20) 3.06 (13:00) 0.1 0 0 0.1 0
09-08-2019 30 (12:40) 17 (00:00) 23.5 12.78 (15:40) 7.22 (20:20) 0.1 0 0 0 0.1
08-08-2019 31.5 (18:00) 17.5 (00:00) 24.5 10.28 (09:40) 4.44 (17:40) 0 0 0 0 0
07-08-2019 25.6 (17:40) 15.5 (00:00) 20.6 5 (14:10) 1.94 (04:50) 3.7 3.7 0 0 0
06-08-2019 27.9 (16:10) 14.6 (00:00) 21.3 6.94 (17:20) 3.61 (20:30) 0 0 0 0 0
05-08-2019 20.5 (15:00) 15.5 (00:00) 18 4.44 (17:10) 2.22 (17:10) 0 0 0 0 0
04-08-2019 21.5 (15:00) 15.6 (00:00) 18.6 4.72 (16:50) 2.78 (16:50) 0 0 0 0 0
03-08-2019 -- (--) -- (--) -- 5.83 (17:50) 3.89 (18:00) -- 0 0 0 --
02-08-2019 23.6 (17:20) 15.1 (00:00) 19.4 5.56 (18:40) 3.33 (19:40) 0.1 0.1 0 0 0
01-08-2019 22.8 (14:00) 14 (00:00) 18.4 10 (05:30) 5.83 (05:20) 46.9 9.5 37 0.1 0.3
31-07-2019 20.7 (15:20) 9.4 (00:00) 15.1 7.5 (15:00) 3.61 (14:10) 0 0 0 0 0
30-07-2019 19.4 (14:30) 12.7 (00:00) 16 10.28 (17:00) 4.44 (00:30) 0.7 0.6 0.1 0 0
29-07-2019 25.3 (14:00) 11.3 (00:00) 18.3 8.06 (23:59) 4.17 (13:00) 0.5 0 0.2 0.1 0.2
28-07-2019 20.9 (16:10) 12.5 (00:00) 16.7 5.28 (02:30) 3.06 (02:30) 1.7 1.4 0.3 0 0
27-07-2019 15.4 (17:30) 12.5 (00:00) 13.9 8.06 (20:00) 3.61 (19:30) 12.7 0.6 6.3 3.4 2.4
26-07-2019 -- (--) -- (--) -- -- (--) -- (--) -- -- -- 3.7 0.6
25-07-2019 -- (--) -- (--) -- -- (--) -- (--) -- 0 0 -- --
24-07-2019 -- (--) -- (--) -- -- (--) -- (--) -- 0 0 0 --
23-07-2019 -- (--) -- (--) -- -- (--) -- (--) -- 0 0 0 --
22-07-2019 35.5 (17:50) 16.1 (00:00) 25.8 6.94 (17:30) 3.06 (17:10) 0 0 0 0 0

Gráficas

Temp. máximas Temp. mínimas Temp. medias Precipitaciones Rachas de viento máximas Velocidades máximas media en intervalos de 10 minutos

Datos horarios

Fecha y hora oficial Temperatura (ºC) Velocidad del viento (km/h) Dirección del viento Racha (km/h) Dirección de racha Precipitación (mm) Presión (hPa) Tendencia (hPa) Humedad (%)
2019-08-20 23:00:00 15.7 5 Norte 15 Norte 0 975 0.8 80
2019-08-20 22:00:00 15.7 3 Nordeste 18 Norte 0 974.7 0.7 80
2019-08-20 21:00:00 15.7 5 Norte 19 Norte 0 974.6 0.4 81
2019-08-20 20:00:00 16.6 5 Norte 19 Norte 0 974.2 -0.1 75
2019-08-20 19:00:00 17.6 7 Norte 23 Noroeste 0 974 -0.3 66
2019-08-20 18:00:00 17.9 8 Norte 26 Noroeste 0 974.2 -0.3 62
2019-08-20 17:00:00 18.8 9 Norte 23 Noroeste 0 974.3 0.5 59
2019-08-20 16:00:00 19.2 8 Norte 25 Noroeste 0 974.3 0.2 56
2019-08-20 15:00:00 19.2 5 Norte 22 Noroeste 0 974.5 0.6 59
2019-08-20 14:00:00 17.3 5 Nordeste 21 Nordeste 0 973.8 0.2 67
2019-08-20 13:00:00 18.1 9 Noroeste 23 Noroeste 0 974.1 0.9 65
2019-08-20 12:00:00 17.1 7 Noroeste 17 Noroeste 0 973.9 1.2 67
2019-08-20 11:00:00 15.8 0 Calma 5 Sudeste 0 973.6 1.7 82
2019-08-20 10:00:00 14.4 0 Calma 4 Este 0 973.2 1.9 93
2019-08-20 09:00:00 13.4 0 Calma 8 Oeste 0 972.7 1.8 94
2019-08-20 08:00:00 13.3 2 Noroeste 11 Noroeste 0 971.9 1.6 94
2019-08-20 07:00:00 13.5 0 Calma 8 Nordeste 0 971.3 0.8 94
2019-08-20 06:00:00 13.8 5 Noroeste 17 Noroeste 0.1 970.9 0.1 94
2019-08-20 05:00:00 14 0 Calma 9 Noroeste 0 970.3 -0.8 94
2019-08-20 04:00:00 13.9 2 Noroeste 11 Oeste 0 970.5 -0.9 96
2019-08-20 03:00:00 14.2 3 Noroeste 15 Noroeste 0 970.8 -0.9 95
2019-08-20 02:00:00 13.9 3 Oeste 10 Oeste 0 971.1 -0.3 97
2019-08-20 01:00:00 14.1 2 Norte 18 Nordeste 0 971.4 0.4 94
2019-08-20 00:00:00 14.4 3 Norte 19 Nordeste 0.1 971.7 0.7 94
2019-08-19 23:00:00 14.1 0 Calma 12 Noroeste 0.8 971.4 1 97
2019-08-19 22:00:00 14.8 2 Norte 10 Norte 0 971 0.6 91
2019-08-19 21:00:00 15 2 Noroeste 13 Noroeste 0 971 0.6 91
2019-08-19 20:00:00 15.7 4 Norte 16 Norte 0 970.4 0 81
2019-08-19 19:00:00 16.2 2 Norte 15 Norte 0 970.4 -0.4 79
2019-08-19 18:00:00 16.2 6 Norte 16 Norte 0 970.4 -0.5 77
2019-08-19 17:00:00 16.5 5 Nordeste 25 Noroeste 0 970.4 -0.3 74
2019-08-19 16:00:00 17.1 3 Nordeste 15 Norte 0 970.8 0.2 72
2019-08-19 15:00:00 16.7 4 Nordeste 16 Noroeste 0 970.9 0.4 70
2019-08-19 14:00:00 16.3 3 Norte 14 Norte 0 970.7 0.4 78
2019-08-19 13:00:00 15 5 Noroeste 12 Norte 0 970.6 0.6 84
2019-08-19 12:00:00 15.9 2 Norte 10 Noroeste 0 970.5 0.4 79
2019-08-19 11:00:00 15.6 0 Calma 9 Noroeste 0 970.3 0.7 81
2019-08-19 10:00:00 13.5 0 Calma 6 Sudoeste 0 970 0.4 99
2019-08-19 09:00:00 13 0 Calma 8 Oeste 0 970.1 0.3 99
2019-08-19 08:00:00 13 2 Oeste 7 Oeste 0.6 969.6 -0.1 99
2019-08-19 07:00:00 13.2 0 Calma 4 Oeste 0 969.6 -0.1 99
2019-08-19 06:00:00 13.1 0 Calma 3 Este 0 969.8 -0.2 99
2019-08-19 05:00:00 13 0 Calma 2 Oeste 0 969.7 -0.6 99
2019-08-19 04:00:00 12.9 0 Calma 10 Noroeste 0.1 969.7 -0.5 99
2019-08-19 03:00:00 13.3 0 Calma 10 Oeste 0.2 970 0.1 99
2019-08-19 02:00:00 13.5 0 Calma 7 Oeste 0.6 970.3 0.7 99
2019-08-19 01:00:00 13.6 0 Calma 13 Oeste 0 970.2 1.4 99
2019-08-19 00:00:00 13.6 3 Oeste 19 Noroeste 0 969.9 2.1 99
2019-08-18 23:00:00 14.1 6 Noroeste 20 Oeste 0.1 969.6 2.5 99
2019-08-18 22:00:00 15 3 Noroeste 22 Norte 0.2 968.8 2.2 98
2019-08-18 21:00:00 15.8 5 Noroeste 19 Noroeste 0.3 967.8 1.3 98
2019-08-18 20:00:00 16.5 4 Noroeste 24 Noroeste 0.2 967.1 1.3 97
2019-08-18 19:00:00 17.1 10 Noroeste 26 Noroeste 0.1 966.6 1.5 95
2019-08-18 18:00:00 18.3 11 Noroeste 24 Noroeste 0 966.5 1.6 91
2019-08-18 17:00:00 18.6 5 Norte 20 Noroeste 0 965.8 0.7 91
2019-08-18 16:00:00 19.6 7 Norte 19 Noroeste 0 965.1 -0.1 83
2019-08-18 15:00:00 20.7 5 Norte 17 Noroeste 0 964.9 0.3 75
2019-08-18 14:00:00 21.3 10 Noroeste 22 Noroeste 0 965.1 1.3 72
2019-08-18 13:00:00 21.5 12 Noroeste 25 Oeste 0 965.2 1.9 73
2019-08-18 12:00:00 22.5 4 Oeste 26 Oeste 0 964.6 1.7 72
2019-08-18 11:00:00 21.3 17 Oeste 26 Oeste 0 963.8 2 73
2019-08-18 10:00:00 20 15 Oeste 26 Oeste 0 963.3 2.4 77
2019-08-18 09:00:00 18.6 14 Oeste 27 Oeste 0 962.9 2.2 80
2019-08-18 08:00:00 16.4 0 Calma 5 Oeste 0 961.8 0.6 97
2019-08-18 07:00:00 15.8 0 Calma 0 Calma 0 960.9 -0.8 98
2019-08-18 06:00:00 14.6 0 Calma 0 Calma 0 960.7 -1.3 98
2019-08-18 05:00:00 15 0 Calma 7 Sudoeste 0 961.2 -1.3 96
2019-08-18 04:00:00 15 2 Oeste 10 Oeste 0 961.7 -1.1 96
2019-08-18 03:00:00 15.7 2 Oeste 10 Oeste 0 962 -1.5 94
2019-08-18 02:00:00 16 0 Calma 0 Calma 0 962.5 -1.4 93
2019-08-18 01:00:00 16.2 0 Calma 3 Sudeste 0 962.8 -1.2 91
2019-08-18 00:00:00 17 0 Calma 2 Sudoeste 0 963.5 0 86
2019-08-17 23:00:00 18.5 0 Calma 8 Oeste 0 963.9 0.6 79
2019-08-17 22:00:00 20.2 0 Calma 15 Noroeste 0 964 0.6 67
2019-08-17 21:00:00 22 7 Noroeste 16 Noroeste 0 963.5 -0.2 61
2019-08-17 20:00:00 23.9 8 Noroeste 15 Noroeste 0 963.3 -0.8 54
2019-08-17 19:00:00 25.7 8 Noroeste 19 Noroeste 0 963.4 -1.1 48
2019-08-17 18:00:00 27 9 Noroeste 20 Noroeste 0 963.7 -1.2 45
2019-08-17 17:00:00 27.4 7 Norte 19 Noroeste 0 964.1 -1.3 42
2019-08-17 16:00:00 28.3 8 Norte 20 Noroeste 0 964.5 -1.6 42
2019-08-17 15:00:00 29.1 8 Noroeste 19 Oeste 0 964.9 -1.8 37
2019-08-17 14:00:00 27.2 2 Este 12 Este 0 965.4 -1.5 41
2019-08-17 13:00:00 26.1 3 Norte 8 Norte 0 966.1 -0.6 43
2019-08-17 12:00:00 22.9 2 Nordeste 10 Este 0 966.7 0.1 50
2019-08-17 11:00:00 20.8 4 Este 9 Norte 0 966.9 0.5 60
2019-08-17 10:00:00 18.7 0 Calma 4 Oeste 0 966.7 0.3 57
2019-08-17 09:00:00 15.3 0 Calma 0 Calma 0 966.6 0.2 73
2019-08-17 08:00:00 12 0 Calma 2 Este 0 966.4 -0.7 85
2019-08-17 07:00:00 11.4 0 Calma 0 Calma 0 966.4 -1.1 86
2019-08-17 06:00:00 12.3 0 Calma 0 Calma 0 966.4 -1.4 83
2019-08-17 05:00:00 12.3 0 Calma 2 Sudoeste 0 967.1 -1.1 80
2019-08-17 04:00:00 12.4 0 Calma 6 Sudoeste 0 967.5 -1 76
2019-08-17 03:00:00 13 2 Sudoeste 9 Sudoeste 0 967.8 -0.6 81
2019-08-17 02:00:00 13.5 0 Calma 7 Sudoeste 0 968.2 -0.1 80
2019-08-17 01:00:00 15 0 Calma 12 Sudoeste 0 968.5 0.7 78
2019-08-17 00:00:00 15.8 0 Calma 10 Sudoeste 0 968.4 1.1 79
2019-08-16 23:00:00 17.8 2 Sudoeste 13 Oeste 0 968.3 1.6 64
2019-08-16 22:00:00 19.1 3 Oeste 17 Oeste 0 967.8 1.5 57
2019-08-16 21:00:00 21.3 4 Noroeste 14 Noroeste 0 967.3 1.1 54
2019-08-16 20:00:00 23.6 10 Noroeste 17 Norte 0 966.7 0.4 52
2019-08-16 19:00:00 25.4 9 Norte 20 Noroeste 0 966.3 -0.1 49
2019-08-16 18:00:00 26.7 10 Noroeste 22 Noroeste 0 966.2 -0.9 46
2019-08-16 17:00:00 27.9 9 Norte 16 Noroeste 0 966.3 -1.1 39
2019-08-16 16:00:00 28.2 4 Norte 15 Noroeste 0 966.4 -1.6 34
2019-08-16 15:00:00 26.6 2 Este 11 Este 0 967.1 -1.4 34
2019-08-16 14:00:00 24.7 3 Este 10 Nordeste 0 967.4 -1.6 43
2019-08-16 13:00:00 22.3 0 Calma 10 Este 0 968 -1.5 47
2019-08-16 12:00:00 19.4 2 Este 9 Este 0 968.5 -1.4 55
2019-08-16 11:00:00 15 4 Nordeste 9 Este 0 969 -0.8 77
2019-08-16 10:00:00 13.4 5 Este 10 Este 0 969.5 -0.4 92
2019-08-16 09:00:00 12 0 Calma 4 Este 0 969.9 0.1 98
2019-08-16 08:00:00 9.7 0 Calma 0 Calma 0 969.8 -0.3 99
2019-08-16 07:00:00 8.9 0 Calma 0 Calma 0 969.9 -0.6 99
2019-08-16 06:00:00 9.6 0 Calma 6 Sudoeste 0 969.8 -1.9 99
2019-08-16 05:00:00 10.2 0 Calma 0 Calma 0 970.1 -1.9 99
2019-08-16 04:00:00 10.1 0 Calma 4 Sudeste 0 970.5 -1.4 99
2019-08-16 03:00:00 10.3 0 Calma 5 Oeste 0 971.7 -1.2 98
2019-08-16 02:00:00 11.2 0 Calma 0 Calma 0 972 -1.1 97
2019-08-16 01:00:00 11.9 0 Calma 4 Sudoeste 0 971.9 -0.9 94
2019-08-16 00:00:00 12.4 0 Calma 5 Sudoeste 0 972.9 0.7 93
2019-08-15 23:00:00 13.9 0 Calma 7 Oeste 0 973.1 0.6 86
2019-08-15 22:00:00 14.8 0 Calma 4 Oeste 0 972.8 0.1 83
2019-08-15 21:00:00 15.5 0 Calma 7 Sudeste 0 972.2 -0.7 79
2019-08-15 20:00:00 17.5 0 Calma 14 Nordeste 0 972.5 -0.2 69
2019-08-15 19:00:00 17.8 3 Norte 16 Norte 0 972.7 -0.3 66
2019-08-15 18:00:00 18.4 4 Norte 20 Nordeste 0 972.9 0 66
2019-08-15 17:00:00 18.9 5 Norte 22 Nordeste 0 972.7 -0.2 66
2019-08-15 16:00:00 19.1 7 Norte 20 Noroeste 0 973 -0.3 67
2019-08-15 15:00:00 18.7 7 Norte 23 Norte 0 972.9 -0.4 71
2019-08-15 14:00:00 19.4 2 Oeste 18 Nordeste 0 972.9 -0.6 67
2019-08-15 13:00:00 19 5 Noroeste 15 Oeste 0 973.3 0.3 74
2019-08-15 12:00:00 18 8 Noroeste 17 Oeste 0 973.3 0.5 79
2019-08-15 11:00:00 15.9 8 Oeste 20 Oeste 0.1 973.5 1 94
2019-08-15 10:00:00 16.2 2 Oeste 17 Oeste 0 973 1.3 92
2019-08-15 09:00:00 16.4 8 Oeste 17 Oeste 0 972.8 1.6 98
2019-08-15 08:00:00 15.3 9 Oeste 27 Noroeste 0.4 972.5 1.6 99
2019-08-15 07:00:00 16.1 3 Oeste 15 Oeste 0 971.7 0.4 99
2019-08-15 06:00:00 16.4 10 Oeste 21 Oeste 0.4 971.2 0 99
2019-08-15 05:00:00 16.8 0 Calma 9 Noroeste 0 970.9 -0.7 99
2019-08-15 04:00:00 16.8 0 Calma 0 Calma 0.1 971.3 -0.3 99
2019-08-15 03:00:00 16.8 0 Calma 0 Calma 0.1 971.2 -0.6 99
2019-08-15 02:00:00 16.9 0 Calma 4 Oeste 0.2 971.6 -0.3 98
2019-08-15 01:00:00 16.9 0 Calma 6 Oeste 0.1 971.6 0.1 97
2019-08-15 00:00:00 17.1 3 Oeste 10 Oeste 0 971.8 0.9 97
2019-08-14 23:00:00 18.3 4 Oeste 14 Noroeste 0 971.9 1.6 87
2019-08-14 22:00:00 18.7 9 Oeste 19 Oeste 0 971.5 1.2 82
2019-08-14 21:00:00 19.7 6 Noroeste 21 Noroeste 0 970.9 0.8 70
2019-08-14 20:00:00 21.4 8 Noroeste 18 Noroeste 0 970.3 0.4 51
2019-08-14 19:00:00 22.7 6 Noroeste 23 Noroeste 0 970.3 0.3 42
2019-08-14 18:00:00 24.2 13 Noroeste 27 Noroeste 0 970.1 0.3 38
2019-08-14 17:00:00 25.2 13 Noroeste 29 Noroeste 0 969.9 -0.5 36
2019-08-14 16:00:00 25.5 9 Noroeste 25 Noroeste 0 970 -0.5 35
2019-08-14 15:00:00 25 9 Oeste 27 Oeste 0 969.8 -0.9 34
2019-08-14 14:00:00 23.4 11 Oeste 25 Noroeste 0 970.4 -0.3 36
2019-08-14 13:00:00 22.5 4 Nordeste 9 Nordeste 0 970.5 -0.3 43
2019-08-14 12:00:00 20.8 3 Este 8 Nordeste 0 970.7 0 45
2019-08-14 11:00:00 17.9 0 Calma 7 Este 0 970.7 0.4 55
2019-08-14 10:00:00 15 3 Este 7 Este 0 970.8 0.4 70
2019-08-14 09:00:00 11.3 0 Calma 5 Sudoeste 0 970.7 0.4 97
2019-08-14 08:00:00 8.7 0 Calma 3 Sudoeste 0 970.3 -0.2 99
2019-08-14 07:00:00 8.7 0 Calma 0 Calma 0 970.4 -0.5 99
2019-08-14 06:00:00 8.6 0 Calma 2 Sudoeste 0 970.3 -1.1 99
2019-08-14 05:00:00 9.3 0 Calma 3 Sudoeste 0 970.5 -1.6 99
2019-08-14 04:00:00 9.4 0 Calma 0 Calma 0 970.9 -1.1 99
2019-08-14 03:00:00 9.5 0 Calma 8 Sudoeste 0 971.4 -1 99
2019-08-14 02:00:00 10.1 0 Calma 2 Sudoeste 0 972.1 -0.4 98
2019-08-14 01:00:00 10.3 0 Calma 3 Sudoeste 0 972 -0.4 97
2019-08-14 00:00:00 11 0 Calma 3 Oeste 0 972.4 0.4 95
2019-08-13 23:00:00 12.1 0 Calma 2 Sudoeste 0 972.5 0.8 88
2019-08-13 22:00:00 13.6 0 Calma 9 Oeste 0 972.4 0.4 80
2019-08-13 21:00:00 15.9 2 Norte 11 Norte 0 972 0 67
2019-08-13 20:00:00 17.3 7 Noroeste 17 Noroeste 0 971.7 -0.2 60
2019-08-13 19:00:00 18.2 3 Norte 17 Noroeste 0 972 -0.1 55
2019-08-13 18:00:00 18.7 6 Norte 21 Noroeste 0 972 -0.3 52
2019-08-13 17:00:00 18.6 5 Norte 19 Noroeste 0 971.9 -0.6 51
2019-08-13 16:00:00 19 4 Nordeste 19 Noroeste 0 972.1 -0.9 49
2019-08-13 15:00:00 18.3 5 Norte 14 Noroeste 0 972.3 -1 51
2019-08-13 14:00:00 17.7 2 Norte 16 Norte 0 972.5 -0.9 57
2019-08-13 13:00:00 17 4 Norte 17 Noroeste 0 973 -0.1 61
2019-08-13 12:00:00 16.4 5 Noroeste 14 Noroeste 0 973.3 0.1 70
2019-08-13 11:00:00 14.4 8 Oeste 18 Oeste 0 973.4 0.3 82
2019-08-13 10:00:00 15.1 5 Oeste 15 Oeste 0 973.1 0.4 81
2019-08-13 09:00:00 12.4 2 Oeste 7 Oeste 0 973.2 0.5 97
2019-08-13 08:00:00 11.8 0 Calma 4 Oeste 0 973.1 0.2 97
2019-08-13 07:00:00 11.7 0 Calma 9 Oeste 0 972.7 -0.5 97
2019-08-13 06:00:00 11.4 0 Calma 8 Oeste 0 972.7 -1 97
2019-08-13 05:00:00 11.4 0 Calma 9 Oeste 0 972.9 -1.5 97
2019-08-13 04:00:00 11.2 3 Sudoeste 10 Oeste 0 973.2 -1.3 97
2019-08-13 03:00:00 11.4 2 Oeste 10 Sudoeste 0 973.7 -1 98
2019-08-13 02:00:00 11.5 2 Oeste 9 Sudoeste 0 974.4 -0.5 98
2019-08-13 01:00:00 11.6 0 Calma 6 Sudoeste 0 974.5 0 98
2019-08-13 00:00:00 11.3 0 Calma 4 Oeste 0 974.7 0.9 98
2019-08-12 23:00:00 11.8 0 Calma 7 Sudoeste 0 974.9 1.4 96
2019-08-12 22:00:00 12.7 0 Calma 15 Oeste 0 974.5 1.3 91
2019-08-12 21:00:00 14.1 9 Oeste 23 Oeste 0 973.8 0.8 82
2019-08-12 20:00:00 14.3 6 Oeste 21 Oeste 0.4 973.5 0.7 90
2019-08-12 19:00:00 14 11 Noroeste 26 Oeste 1.5 973.2 0.3 84
2019-08-12 18:00:00 15.7 11 Noroeste 29 Oeste 0 973 0.1 67
2019-08-12 17:00:00 16.5 15 Oeste 35 Oeste 0 972.8 -0.2 59
2019-08-12 16:00:00 16.1 18 Noroeste 34 Noroeste 0 972.9 -0.1 58
2019-08-12 15:00:00 17 12 Noroeste 31 Oeste 0 972.9 0 57
2019-08-12 14:00:00 16.5 12 Noroeste 33 Oeste 0 973 0.6 64
2019-08-12 13:00:00 15.5 9 Noroeste 25 Noroeste 0.2 973 0.9 73
2019-08-12 12:00:00 14.5 13 Oeste 31 Oeste 0 972.9 1.3 74
2019-08-12 11:00:00 14 22 Oeste 39 Oeste 0 972.4 1.3 77
2019-08-12 10:00:00 13.3 13 Oeste 20 Noroeste 0 972.1 1.4 86
2019-08-12 09:00:00 12.8 8 Oeste 18 Oeste 0 971.6 1.2 91
2019-08-12 08:00:00 11.6 8 Oeste 14 Noroeste 0 971.1 0.9 98
2019-08-12 07:00:00 10.7 0 Calma 3 Oeste 0 970.7 0.5 99
2019-08-12 06:00:00 10.5 0 Calma 2 Oeste 0 970.4 -0.1 99
2019-08-12 05:00:00 11.3 0 Calma 7 Oeste 0 970.2 -0.8 98
2019-08-12 04:00:00 12 4 Oeste 12 Oeste 0 970.2 -0.8 98
2019-08-12 03:00:00 12.7 5 Oeste 17 Oeste 0 970.5 -0.5 98
2019-08-12 02:00:00 13.2 6 Oeste 12 Oeste 0 971 0.3 98
2019-08-12 01:00:00 13.4 5 Oeste 17 Oeste 0 971 0.8 98
2019-08-12 00:00:00 13.7 5 Oeste 13 Oeste 0 971 1.2 98
2019-08-11 23:00:00 13.9 2 Oeste 9 Oeste 0 970.7 1.5 98
2019-08-11 22:00:00 14 0 Calma 10 Norte 0 970.2 1.2 97
2019-08-11 21:00:00 14.2 3 Norte 17 Oeste 0.4 969.8 0.9 96
2019-08-11 20:00:00 15.3 6 Oeste 15 Oeste 0 969.2 0.8 88
2019-08-11 19:00:00 16.4 4 Noroeste 16 Noroeste 0 969 0.7 81
2019-08-11 18:00:00 16.6 4 Norte 23 Noroeste 0 968.9 0.6 81
2019-08-11 17:00:00 17.3 9 Norte 21 Noroeste 0 968.4 -0.2 79
2019-08-11 16:00:00 17.6 9 Norte 22 Norte 0 968.3 -0.7 82
2019-08-11 15:00:00 17 8 Noroeste 17 Noroeste 0.1 968.3 -0.4 85
2019-08-11 14:00:00 17.5 8 Oeste 23 Oeste 0 968.6 0.3 88
2019-08-11 13:00:00 16.3 12 Oeste 18 Oeste 0 969 0.8 92
2019-08-11 12:00:00 16.2 2 Noroeste 10 Oeste 0 968.7 0.4 97
2019-08-11 11:00:00 15 0 Calma 6 Norte 0 968.3 0.2 99
2019-08-11 10:00:00 14.1 0 Calma 5 Noroeste 0 968.2 0.4 99
2019-08-11 09:00:00 14.2 0 Calma 12 Oeste 0.3 968.3 1.2 99
2019-08-11 08:00:00 13.8 10 Oeste 28 Oeste 4.5 968.1 0.8 99
2019-08-11 07:00:00 14.2 15 Oeste 24 Oeste 6.2 967.8 0.1 99
2019-08-11 06:00:00 14.7 0 Calma 14 Oeste 5 967.1 -2 99
2019-08-11 05:00:00 14.7 3 Oeste 9 Oeste 0.7 967.3 -1.8 99
2019-08-11 04:00:00 14.8 0 Calma 9 Sur 0.9 967.7 -2.6 99
2019-08-11 03:00:00 14.9 3 Sur 10 Sur 0.5 969.1 -1.2 99
2019-08-11 02:00:00 14.9 3 Norte 15 Oeste 0.8 969.1 -1.8 98
2019-08-11 01:00:00 15.4 0 Calma 4 Noroeste 0 970.3 -0.4 94
2019-08-11 00:00:00 16.3 0 Calma 5 Este 0 970.3 0 88
2019-08-10 23:00:00 16.7 0 Calma 10 Noroeste 0 970.9 0.9 79
2019-08-10 22:00:00 16.8 2 Noroeste 20 Noroeste 0 970.7 0.7 78
2019-08-10 21:00:00 17 6 Noroeste 19 Noroeste 0 970.3 0.3 76
2019-08-10 20:00:00 17.6 4 Norte 19 Norte 0 970 -0.4 72
2019-08-10 19:00:00 18.6 7 Norte 20 Noroeste 0 970 -0.6 67
2019-08-10 18:00:00 18.8 5 Norte 24 Noroeste 0 970 -0.8 67
2019-08-10 17:00:00 18.8 8 Norte 22 Noroeste 0 970.4 -0.7 67
2019-08-10 16:00:00 19.7 9 Noroeste 17 Noroeste 0 970.6 -0.6 67
2019-08-10 15:00:00 20.4 6 Norte 21 Noroeste 0 970.8 -0.5 64
2019-08-10 14:00:00 19.4 6 Noroeste 20 Norte 0.1 971.1 0 64
2019-08-10 13:00:00 17.9 11 Noroeste 21 Norte 0 971.2 0.4 76
2019-08-10 12:00:00 18.7 3 Nordeste 11 Noroeste 0 971.3 1.2 78
2019-08-10 11:00:00 17.4 4 Noroeste 14 Norte 0 971.1 1.4 88
2019-08-10 10:00:00 16.9 3 Noroeste 13 Noroeste 0 970.8 1.5 97
2019-08-10 09:00:00 15.9 0 Calma 4 Este 0 970.1 1.3 99
2019-08-10 08:00:00 15.5 0 Calma 9 Sudoeste 0 969.7 1 99
2019-08-10 07:00:00 14.7 0 Calma 4 Sur 0 969.3 1.1 99
2019-08-10 06:00:00 15 0 Calma 0 Calma 0 968.8 0.5 99
2019-08-10 05:00:00 15.1 0 Calma 3 Sudeste 0 968.7 0.5 99
2019-08-10 04:00:00 15.5 0 Calma 2 Sudeste 0 968.2 0.4 99
2019-08-10 03:00:00 15.8 0 Calma 0 Calma 0 968.3 0.9 99
2019-08-10 02:00:00 15.9 0 Calma 0 Calma 0 968.2 1.2 99
2019-08-10 01:00:00 16.3 0 Calma 0 Calma 0 967.8 1.4 99
2019-08-10 00:00:00 17 0 Calma 8 Sudeste 0 967.4 1.8 98
2019-08-09 23:00:00 18 0 Calma 13 Norte 0 967 3.6 93
2019-08-09 22:00:00 19 6 Noroeste 17 Noroeste 0 966.4 4.3 85
2019-08-09 21:00:00 20.2 9 Noroeste 44 Oeste 0.1 965.6 3.3 86
2019-08-09 20:00:00 24.7 21 Oeste 38 Oeste 0 963.4 0.6 53
2019-08-09 19:00:00 27.8 0 Calma 18 Noroeste 0 962.1 -0.7 46
2019-08-09 18:00:00 27 3 Oeste 20 Sudoeste 0 962.3 -0.4 51
2019-08-09 17:00:00 26.2 3 Oeste 27 Oeste 0 962.8 0.3 52
2019-08-09 16:00:00 27.1 3 Oeste 46 Noroeste 0 962.8 0.6 51
2019-08-09 15:00:00 28.1 9 Oeste 34 Noroeste 0 962.7 0.7 48
2019-08-09 14:00:00 28.3 6 Sudoeste 32 Sudoeste 0 962.5 0.6 46
2019-08-09 13:00:00 29.7 8 Noroeste 34 Norte 0 962.2 0.7 45
2019-08-09 12:00:00 28.9 4 Sur 37 Sur 0 962 1.1 46
2019-08-09 11:00:00 27.3 3 Oeste 29 Noroeste 0 961.9 1.3 47
2019-08-09 10:00:00 26.6 4 Noroeste 27 Noroeste 0 961.5 1.4 48
2019-08-09 09:00:00 26.6 6 Noroeste 37 Noroeste 0 960.9 0.5 46
2019-08-09 08:00:00 25.4 6 Oeste 36 Sudoeste 0 960.6 0.1 48
2019-08-09 07:00:00 25.1 4 Noroeste 24 Oeste 0 960.1 -0.2 48
2019-08-09 06:00:00 25.3 4 Sur 37 Sur 0 960.4 0 48
2019-08-09 05:00:00 25.9 6 Sur 40 Oeste 0 960.5 -0.1 47
2019-08-09 04:00:00 26.7 5 Sur 43 Oeste 0 960.3 -0.2 45
2019-08-09 03:00:00 27.3 3 Oeste 26 Noroeste 0 960.4 0.2 43
2019-08-09 02:00:00 27.9 2 Sur 39 Oeste 0 960.6 0.7 40
2019-08-09 01:00:00 28.5 3 Sudoeste 21 Oeste 0 960.5 1 40
2019-08-09 00:00:00 26.7 3 Sudoeste 14 Oeste 0 960.2 1 49
2019-08-08 23:00:00 23.9 2 Sudoeste 15 Sudoeste 0 959.9 0.3 64
2019-08-08 22:00:00 25 0 Calma 8 Sudoeste 0 959.5 -0.5 63
2019-08-08 21:00:00 28.1 0 Calma 7 Sur 0 959.2 -1.3 49
2019-08-08 20:00:00 29.9 0 Calma 9 Sudeste 0 959.6 -1.5 43
2019-08-08 19:00:00 30.9 3 Sudeste -- -- -- 960 -1.5 41
2019-08-08 18:00:00 31.5 3 Oeste 28 Oeste 0 960.5 -1.4 40
2019-08-08 17:00:00 30.6 8 Oeste 28 Noroeste 0 961.1 -0.9 42
2019-08-08 16:00:00 30.4 8 Noroeste 27 Oeste 0 961.5 -0.7 41
2019-08-08 15:00:00 30.3 4 Noroeste 31 Sudoeste 0 961.9 -0.9 42
2019-08-08 14:00:00 29.1 7 Noroeste 29 Noroeste 0 962 -0.8 43
2019-08-08 13:00:00 27.8 2 Oeste 27 Oeste 0 962.2 -0.3 46
2019-08-08 12:00:00 25.6 5 Sudoeste 33 Sur 0 962.8 0.7 49
2019-08-08 11:00:00 24.6 4 Oeste 23 Sudeste 0 962.8 0.6 52
2019-08-08 10:00:00 23.8 0 Calma 37 Sur 0 962.5 0.2 54
2019-08-08 09:00:00 23.2 3 Sudeste 28 Sudeste 0 962.1 -0.2 57
2019-08-08 08:00:00 21.1 2 Noroeste 22 Sudoeste 0 962.2 -0.4 65
2019-08-08 07:00:00 19.7 0 Calma 23 Sudeste 0 962.3 -0.3 69
2019-08-08 06:00:00 18.4 0 Calma 13 Nordeste 0 962.3 -0.7 82
2019-08-08 05:00:00 18 0 Calma 9 Sudoeste 0 962.6 -0.4 88
2019-08-08 04:00:00 18.6 0 Calma 7 Sudeste 0 962.6 -0.6 93
2019-08-08 03:00:00 19.1 0 Calma 6 Sudeste 0 963 -0.3 97
2019-08-08 02:00:00 19.5 0 Calma 6 Oeste 0 963 0 96
2019-08-08 01:00:00 20 0 Calma 4 Sudoeste 0 963.2 0.7 95
2019-08-08 00:00:00 20.3 0 Calma 2 Sudeste 0 963.3 1.2 92
2019-08-07 23:00:00 20.5 0 Calma 6 Noroeste 0 963 1.1 91
2019-08-07 22:00:00 21.2 0 Calma 8 Oeste 0 962.5 0.6 88
2019-08-07 21:00:00 22.4 0 Calma 5 Sudeste 0 962.1 -0.1 80
2019-08-07 20:00:00 23.7 0 Calma 8 Nordeste 0 961.9 -0.6 72
2019-08-07 19:00:00 24.9 4 Este 13 Este 0 961.9 -1 64
2019-08-07 18:00:00 25.2 4 Sudeste 12 Este 0 962.2 -1.2 60
2019-08-07 17:00:00 24.8 3 Nordeste 12 Este 0 962.5 -1.3 58
2019-08-07 16:00:00 24.6 5 Este 14 Este 0 962.9 -1.4 57
2019-08-07 15:00:00 24.2 4 Este 18 Noroeste 0 963.4 -1.2 60
2019-08-07 14:00:00 24.3 4 Norte 13 Sudeste 0 963.8 -0.7 63
2019-08-07 13:00:00 21.8 3 Este 12 Este 0 964.3 0.1 69
2019-08-07 12:00:00 21.4 5 Sudeste 15 Este 0 964.6 0.9 75
2019-08-07 11:00:00 20.4 2 Sudeste 9 Nordeste 0 964.5 1.2 85
2019-08-07 10:00:00 17.2 0 Calma 5 Nordeste 0 964.2 1.2 99
2019-08-07 09:00:00 16.4 0 Calma 5 Oeste 0 963.7 1.3 99
2019-08-07 08:00:00 15.8 0 Calma 12 Oeste 0 963.3 0.6 99
2019-08-07 07:00:00 15.7 5 Oeste 13 Oeste 0 963 1 99
2019-08-07 06:00:00 15.6 0 Calma 10 Oeste 0 962.4 -0.2 99
2019-08-07 05:00:00 15.9 5 Oeste 16 Oeste 0 962.7 -1.4 99
2019-08-07 04:00:00 16.1 0 Calma 5 Sudeste 0.1 962 -2 99
2019-08-07 03:00:00 15.9 0 Calma 4 Sur 3.3 962.6 -2.3 99
2019-08-07 02:00:00 16.9 2 Sudeste 14 Noroeste 0.3 964.1 -1.4 97
2019-08-07 01:00:00 17.4 0 Calma 9 Oeste 0 964 -1 94
2019-08-07 00:00:00 17.8 0 Calma 9 Noroeste 0 964.9 0.4 89
2019-08-06 23:00:00 18.4 0 Calma 13 Norte 0 965.5 2.1 86
2019-08-06 22:00:00 19 5 Noroeste 23 Norte 0 965 1.9 84
2019-08-06 21:00:00 19.5 7 Noroeste 22 Oeste 0 964.5 1.9 80
2019-08-06 20:00:00 21.2 8 Norte 21 Norte 0 963.4 0.9 72
2019-08-06 19:00:00 22.2 5 Norte 19 Noroeste 0 963.1 0.3 76
2019-08-06 18:00:00 23.4 8 Noroeste 25 Noroeste 0 962.6 -0.5 72
2019-08-06 17:00:00 26.4 11 Noroeste 21 Noroeste 0 962.5 -1.2 57
2019-08-06 16:00:00 27.6 10 Noroeste 19 Noroeste 0 962.8 -1.5 55
2019-08-06 15:00:00 25.3 9 Oeste 16 Noroeste 0 963.1 -1.4 63
2019-08-06 14:00:00 24.3 2 Norte 12 Este 0 963.7 -0.5 65
2019-08-06 13:00:00 23.3 2 Oeste 10 Oeste 0 964.3 -0.2 71
2019-08-06 12:00:00 20.8 6 Oeste 13 Oeste 0 964.5 0.2 79
2019-08-06 11:00:00 19.5 2 Este 10 Este 0 964.2 -0.4 85
2019-08-06 10:00:00 18.2 0 Calma 6 Noroeste 0 964.5 -0.1 98
2019-08-06 09:00:00 17 2 Sudeste 5 Sudeste 0 964.3 -0.5 99
2019-08-06 08:00:00 16.1 0 Calma 5 Sudoeste 0 964.6 -0.8 99
2019-08-06 07:00:00 15.9 0 Calma 0 Calma 0 964.6 -0.8 99
2019-08-06 06:00:00 15.4 0 Calma 6 Sudoeste 0 964.8 -1.1 99
2019-08-06 05:00:00 15.2 0 Calma 5 Oeste 0 965.4 -0.9 99
2019-08-06 04:00:00 14.9 0 Calma 8 Sudoeste 0 965.4 -1.4 99
2019-08-06 03:00:00 14.7 0 Calma 8 Sudoeste 0 965.9 -0.9 99
2019-08-06 02:00:00 14.8 0 Calma 8 Sudoeste 0 966.3 -0.5 99
2019-08-06 01:00:00 15.4 2 Sudoeste 8 Sudoeste 0 966.8 0.6 99
2019-08-06 00:00:00 15.5 2 Oeste 6 Sudoeste 0 966.8 0.9 97
2019-08-05 23:00:00 16.3 0 Calma 3 Sudoeste 0 966.8 0.9 97
2019-08-05 22:00:00 17.6 0 Calma 3 Norte 0 966.2 0.3 92
2019-08-05 21:00:00 19.3 0 Calma 10 Noroeste 0 965.9 -0.3 82
2019-08-05 20:00:00 20.2 2 Norte 10 Norte 0 965.9 -0.5 79
2019-08-05 19:00:00 19.4 3 Norte 11 Noroeste 0 965.9 -0.6 87
2019-08-05 18:00:00 19.1 5 Noroeste 16 Norte 0 966.2 -0.2 88
2019-08-05 17:00:00 19.2 7 Norte 14 Norte 0 966.4 -0.3 86
2019-08-05 16:00:00 19.8 4 Norte 14 Norte 0 966.5 -0.5 84
2019-08-05 15:00:00 20.3 4 Noroeste 11 Norte 0 966.4 -1 81
2019-08-05 14:00:00 19.2 4 Norte 9 Noroeste 0 966.7 -0.8 88
2019-08-05 13:00:00 18.6 4 Norte 12 Noroeste 0 967 -0.5 91
2019-08-05 12:00:00 18.2 3 Norte 11 Noroeste 0 967.4 -0.2 93
2019-08-05 11:00:00 17.8 3 Norte 9 Norte 0 967.5 -0.1 96
2019-08-05 10:00:00 16.9 0 Calma 8 Norte 0 967.5 0.1 99
2019-08-05 09:00:00 16.6 0 Calma 3 Noroeste 0 967.6 0.3 99
2019-08-05 08:00:00 16.4 0 Calma 0 Calma 0 967.6 0.2 99
2019-08-05 07:00:00 16.3 0 Calma 0 Calma 0 967.4 -0.1 99
2019-08-05 06:00:00 16.3 0 Calma 0 Calma 0 967.3 -0.5 99
2019-08-05 05:00:00 16.3 0 Calma 3 Oeste 0 967.4 -0.9 99
2019-08-05 04:00:00 16.3 0 Calma 2 Oeste 0 967.5 -0.8 99
2019-08-05 03:00:00 16.1 0 Calma 4 Oeste 0 967.8 -0.7 99
2019-08-05 02:00:00 16.2 0 Calma 3 Oeste 0 968.3 -0.5 99
2019-08-05 01:00:00 16.3 0 Calma 4 Oeste 0 968.3 -0.1 99
2019-08-05 00:00:00 16.7 0 Calma 5 Oeste 0 968.5 0.8 97
2019-08-04 23:00:00 17.4 0 Calma 11 Noroeste 0 968.8 1.7 97
2019-08-04 22:00:00 17.7 3 Oeste 15 Noroeste 0 968.4 1.8 95
2019-08-04 21:00:00 17.8 4 Noroeste 17 Noroeste 0 967.7 0.9 94
2019-08-04 20:00:00 18 4 Norte 13 Nordeste 0 967.1 0.4 96
2019-08-04 19:00:00 18.3 8 Noroeste 14 Noroeste 0 966.6 0 94
2019-08-04 18:00:00 18.4 5 Noroeste 14 Noroeste 0 966.8 0.5 94
2019-08-04 17:00:00 18.7 6 Noroeste 17 Noroeste 0 966.7 0.2 92
2019-08-04 16:00:00 20.1 7 Norte 16 Norte 0 966.6 -0.1 84
2019-08-04 15:00:00 21.4 4 Norte 11 Noroeste 0 966.3 -0.7 76
2019-08-04 14:00:00 20.4 0 Calma 8 Noroeste 0 966.5 -0.7 78
2019-08-04 13:00:00 19.7 0 Calma 7 Noroeste 0 966.7 -0.5 82
2019-08-04 12:00:00 18.9 3 Noroeste 10 Noroeste 0 967 0 85
2019-08-04 11:00:00 19 4 Oeste 9 Oeste 0 967.2 0.3 84
2019-08-04 10:00:00 17.9 2 Noroeste 8 Oeste 0 967.2 0.7 92
2019-08-04 09:00:00 17.1 0 Calma 6 Oeste 0 967 0.6 98
2019-08-04 08:00:00 16.3 0 Calma 6 Oeste 0 966.9 0.5 98
2019-08-04 07:00:00 15.7 0 Calma 5 Oeste 0 966.5 0 98
2019-08-04 06:00:00 16.4 0 Calma 4 Oeste 0 966.4 -0.3 98
2019-08-04 05:00:00 16.7 0 Calma 10 Oeste 0 966.4 -0.2 98
2019-08-04 04:00:00 16.9 5 Oeste 14 Oeste 0 966.5 -0.2 97
2019-08-04 03:00:00 17.4 2 Oeste 5 Oeste 0 966.7 -0.1 96
2019-08-04 02:00:00 17 0 Calma 6 Oeste 0 966.6 0.1 96
2019-08-04 01:00:00 17.7 0 Calma 12 Oeste 0 966.7 0.9 93
2019-08-04 00:00:00 18.6 3 Noroeste 10 Noroeste 0 966.8 1.8 89
2019-08-03 23:00:00 19.2 3 Noroeste 18 Oeste 0 966.5 2.1 85
2019-08-03 22:00:00 19.8 9 Noroeste 20 Noroeste 0 965.8 -- 82
2019-08-03 21:00:00 22 7 Norte 14 Norte 0 965 -- 76
2019-08-03 20:00:00 24.5 6 Norte 17 Noroeste 0 964.4 -- 67
2019-08-03 19:00:00 -- 11 Norte -- -- -- -- -- --
2019-08-03 18:00:00 -- 14 Noroeste 21 Noroeste 0 -- -- --
2019-08-03 17:00:00 -- 8 Norte 18 Norte 0 -- -- --
2019-08-03 16:00:00 29.7 0 Calma 12 Sudeste 0 964.2 -1.4 42
2019-08-03 15:00:00 27.9 0 Calma 12 Sudeste 0 964.7 -1.2 45
2019-08-03 14:00:00 26.3 5 Sudeste 13 Este 0 965.2 -1.1 49
2019-08-03 13:00:00 24.2 5 Nordeste 12 Este 0 965.6 -1.1 55
2019-08-03 12:00:00 22.1 3 Nordeste 8 Nordeste 0 965.9 -0.8 64
2019-08-03 11:00:00 18.7 3 Nordeste 11 Nordeste 0 966.3 -0.4 79
2019-08-03 10:00:00 16.9 2 Este 8 Nordeste 0 966.7 0 94
2019-08-03 09:00:00 15.6 0 Calma 6 Este 0 966.7 0 98
2019-08-03 08:00:00 15.7 0 Calma 4 Este 0 966.7 -0.5 98
2019-08-03 07:00:00 15.7 0 Calma 0 Calma 0 966.7 -0.7 98
2019-08-03 06:00:00 15.8 0 Calma 0 Calma 0 966.7 -1 97
2019-08-03 05:00:00 15.8 0 Calma 0 Calma 0 967.2 -0.9 97
2019-08-03 04:00:00 16.1 0 Calma 0 Calma 0 967.4 -0.9 96
2019-08-03 03:00:00 16 0 Calma -- -- -- 967.7 -0.7 96
2019-08-03 02:00:00 15.9 0 Calma 0 Calma 0 968.1 -0.4 96
2019-08-03 01:00:00 15.6 0 Calma 6 Oeste 0 968.3 0.2 96
2019-08-03 00:00:00 15.7 0 Calma 0 Calma 0 968.4 0.6 95
2019-08-02 23:00:00 15.8 0 Calma 7 Noroeste 0 968.5 1 94
2019-08-02 22:00:00 17.5 0 Calma 12 Noroeste 0 968.1 0.6 85
2019-08-02 21:00:00 19.2 3 Noroeste 17 Noroeste 0 967.8 0.1 73
2019-08-02 20:00:00 20.4 10 Noroeste 18 Noroeste 0 967.5 -0.5 66
2019-08-02 19:00:00 22.3 9 Noroeste 20 Noroeste 0 967.5 -1 61
2019-08-02 18:00:00 23.2 8 Noroeste 20 Noroeste 0 967.7 -1.1 61
2019-08-02 17:00:00 22.6 3 Norte 16 Norte 0 968 -1 62
2019-08-02 16:00:00 22.6 5 Norte 16 Nordeste 0 968.5 -0.7 61
2019-08-02 15:00:00 20.9 3 Norte 14 Norte 0 968.8 -0.5 67
2019-08-02 14:00:00 20.5 6 Noroeste 14 Noroeste 0 969 -0.2 70
2019-08-02 13:00:00 19.2 2 Norte 13 Noroeste 0 969.2 0.2 77
2019-08-02 12:00:00 18.5 2 Norte 8 Nordeste 0 969.3 0.5 82
2019-08-02 11:00:00 17.3 0 Calma 6 Noroeste 0 969.2 0.6 91
2019-08-02 10:00:00 16.1 0 Calma 3 Nordeste 0 969 0.8 99
2019-08-02 09:00:00 15.7 0 Calma 4 Oeste 0 968.8 0.8 99
2019-08-02 08:00:00 15.3 0 Calma 8 Oeste 0 968.6 0.3 99
2019-08-02 07:00:00 15.2 0 Calma 5 Oeste 0 968.2 -0.3 99
2019-08-02 06:00:00 15.3 0 Calma 5 Oeste 0 968 -0.7 99
2019-08-02 05:00:00 15.4 0 Calma 6 Oeste 0 968.3 -0.5 99
2019-08-02 04:00:00 15.3 0 Calma 5 Oeste 0.1 968.5 -0.6 99
2019-08-02 03:00:00 15.3 2 Oeste 8 Oeste 0 968.7 -0.4 99
2019-08-02 02:00:00 15.5 0 Calma 5 Oeste 0 968.8 0 99
2019-08-02 01:00:00 15.7 0 Calma 7 Oeste 0 969.1 1 99
2019-08-02 00:00:00 15.6 2 Oeste 9 Oeste 0 969.1 1.4 99
2019-08-01 23:00:00 15.7 0 Calma 6 Oeste 0 968.8 1.4 99
2019-08-01 22:00:00 16 2 Noroeste 11 Noroeste 0 968.1 1.2 99
2019-08-01 21:00:00 16 6 Noroeste 12 Noroeste 0 967.7 1.3 99
2019-08-01 20:00:00 16.2 6 Noroeste 13 Noroeste 0.3 967.4 1.6 99
2019-08-01 19:00:00 16.6 4 Noroeste 19 Oeste 0 966.9 1.6 98
2019-08-01 18:00:00 17.2 10 Oeste 19 Oeste 0 966.4 1.3 94
2019-08-01 17:00:00 18 10 Noroeste 27 Oeste 0 965.8 0.5 90
2019-08-01 16:00:00 19.2 14 Oeste 34 Oeste 0 965.3 -0.1 83
2019-08-01 15:00:00 21.4 11 Oeste 20 Oeste 0 965.1 -0.8 74
2019-08-01 14:00:00 22.1 6 Noroeste 15 Oeste 0.1 965.3 -0.3 68
2019-08-01 13:00:00 20.4 3 Noroeste 15 Oeste 0 965.4 0 75
2019-08-01 12:00:00 18 7 Oeste 18 Noroeste 0 965.9 0 90
2019-08-01 11:00:00 16.6 6 Oeste 19 Oeste 0 965.6 0.4 99
2019-08-01 10:00:00 15.1 5 Oeste 13 Oeste 0.1 965.4 -0.8 99
2019-08-01 09:00:00 14.3 3 Oeste 8 Nordeste 0.2 965.9 -0.7 99
2019-08-01 08:00:00 14.3 0 Calma 33 Sudeste 2.8 965.2 -0.8 99
2019-08-01 07:00:00 14 9 Sudeste 30 Este 33.9 966.2 -0.1 99
2019-08-01 06:00:00 14.6 2 Sudoeste 36 Noroeste 9.5 966.6 -0.3 99
2019-08-01 05:00:00 15.3 0 Calma 6 Oeste 0 966 -1.4 95
2019-08-01 04:00:00 15.2 0 Calma 4 Noroeste 0 966.3 -1.7 94
2019-08-01 03:00:00 15.2 0 Calma 2 Este 0 966.9 -1.4 94
2019-08-01 02:00:00 15.8 0 Calma 4 Noroeste 0 967.4 -1 92
2019-08-01 01:00:00 15.7 0 Calma 4 Norte 0 968 -0.2 91
2019-08-01 00:00:00 15.7 0 Calma 10 Noroeste 0 968.3 0.4 89
2019-07-31 23:00:00 15.9 2 Norte 10 Norte 0 968.4 0.9 88
2019-07-31 22:00:00 16.1 3 Norte 14 Nordeste 0 968.2 0.6 86
2019-07-31 21:00:00 16.6 4 Norte 19 Noroeste 0 967.9 0.1 82
2019-07-31 20:00:00 17.4 6 Noroeste 22 Noroeste 0 967.5 -0.3 76
2019-07-31 19:00:00 18.7 10 Noroeste 20 Noroeste 0 967.6 -0.7 69
2019-07-31 18:00:00 19.1 6 Norte 16 Norte 0 967.8 -0.9 64
2019-07-31 17:00:00 20.2 7 Norte 26 Noroeste 0 967.8 -1.3 61
2019-07-31 16:00:00 20 8 Norte 23 Noroeste 0 968.3 -1.3 60
2019-07-31 15:00:00 19.4 7 Norte 27 Norte 0 968.7 -1.4 60
2019-07-31 14:00:00 19.1 12 Norte 23 Noroeste 0 969.1 -1.5 58
2019-07-31 13:00:00 19.4 5 Nordeste 21 Norte 0 969.6 -1.1 52
2019-07-31 12:00:00 18.9 8 Este 19 Este 0 970.1 -0.9 54
2019-07-31 11:00:00 17 6 Este 14 Este 0 970.6 -0.3 66
2019-07-31 10:00:00 14.8 0 Calma 2 Nordeste 0 970.7 -0.4 82
2019-07-31 09:00:00 12.5 0 Calma 3 Noroeste 0 971 0.1 97
2019-07-31 08:00:00 10.3 0 Calma 3 Oeste 0 970.9 -0.3 99
2019-07-31 07:00:00 9.6 0 Calma 3 Sudoeste 0 971.1 -0.3 99
2019-07-31 06:00:00 9.8 0 Calma 6 Sudoeste 0 970.9 -0.7 99
2019-07-31 05:00:00 10.2 0 Calma 6 Sudoeste 0 971.2 -0.6 99
2019-07-31 04:00:00 10.3 0 Calma 9 Oeste 0 971.4 -0.4 98
2019-07-31 03:00:00 10.2 2 Sudoeste 9 Sudoeste 0 971.6 -0.7 97
2019-07-31 02:00:00 11.2 0 Calma 7 Sudoeste 0 971.8 -0.3 95
2019-07-31 01:00:00 11.8 0 Calma 7 Sudoeste 0 971.8 0.2 93
2019-07-31 00:00:00 13 0 Calma 6 Sudoeste 0 972.3 0.8 87
2019-07-30 23:00:00 13.5 0 Calma 3 Oeste 0 972.1 1 82
2019-07-30 22:00:00 13.7 0 Calma 15 Noroeste 0 971.6 0.6 76
2019-07-30 21:00:00 15.5 5 Norte 17 Nordeste 0 971.5 0.3 67
2019-07-30 20:00:00 15.9 7 Nordeste 21 Nordeste 0 971.1 0 69
2019-07-30 19:00:00 16.7 4 Nordeste 16 Norte 0 971 0.1 66
2019-07-30 18:00:00 17.1 6 Norte 18 Norte 0 971.2 0.2 63
2019-07-30 17:00:00 17.1 5 Nordeste 37 Nordeste 0 971.1 0.2 63
2019-07-30 16:00:00 17.8 6 Nordeste 19 Nordeste 0 970.9 0 59
2019-07-30 15:00:00 18.3 7 Norte 21 Noroeste 0 971 0.2 55
2019-07-30 14:00:00 18.2 9 Norte 27 Oeste 0 970.9 0.1 51
2019-07-30 13:00:00 17 9 Noroeste 22 Oeste 0 970.9 0.2 60
2019-07-30 12:00:00 16.4 8 Noroeste 21 Noroeste 0 970.8 0.6 63
2019-07-30 11:00:00 15.4 10 Oeste 24 Oeste 0 970.8 1.2 70
2019-07-30 10:00:00 14.4 9 Oeste 21 Oeste 0 970.7 1.4 75
2019-07-30 09:00:00 13.6 5 Oeste 12 Oeste 0 970.2 1.3 89
2019-07-30 08:00:00 13 4 Oeste 10 Oeste 0 969.6 1.1 98
2019-07-30 07:00:00 12.9 0 Calma 15 Oeste 0.1 969.3 1 98
2019-07-30 06:00:00 13.1 5 Oeste 15 Oeste 0 968.9 0.6 97
2019-07-30 05:00:00 13.4 5 Oeste 20 Oeste 0 968.5 0.2 96
2019-07-30 04:00:00 13.3 0 Calma 15 Oeste 0 968.3 0.2 99
2019-07-30 03:00:00 13.5 4 Noroeste 16 Noroeste 0.5 968.3 0.3 98
2019-07-30 02:00:00 14 2 Oeste 12 Oeste 0 968.3 0.8 95
2019-07-30 01:00:00 14.1 5 Oeste 36 Oeste 0.1 968.1 1.5 93
2019-07-30 00:00:00 14.4 12 Oeste 29 Noroeste 0.2 968 2.2 94
2019-07-29 23:00:00 14.6 6 Oeste 18 Oeste 0 967.5 2.2 96
2019-07-29 22:00:00 15.4 7 Noroeste 21 Noroeste 0 966.6 1.6 89
2019-07-29 21:00:00 16.6 4 Noroeste 20 Oeste 0 965.8 1.2 76
2019-07-29 20:00:00 16.6 7 Noroeste 23 Oeste 0 965.3 1.3 76
2019-07-29 19:00:00 16.4 8 Noroeste 24 Noroeste 0 965 1.5 84
2019-07-29 18:00:00 16.8 14 Noroeste 27 Norte 0 964.6 2.1 84
2019-07-29 17:00:00 18.2 9 Norte 27 Noroeste 0 964 1.9 80
2019-07-29 16:00:00 19.5 11 Norte 28 Nordeste 0 963.5 1.9 72
2019-07-29 15:00:00 22.6 10 Norte 24 Noroeste 0 962.5 1.1 61
2019-07-29 14:00:00 24.7 8 Norte 24 Oeste 0 962.1 0.8 49
2019-07-29 13:00:00 24.3 15 Oeste 24 Oeste 0.1 961.6 0.3 43
2019-07-29 12:00:00 23.8 10 Noroeste 17 Noroeste 0 961.4 0.2 41
2019-07-29 11:00:00 22.1 0 Calma 7 Este 0 961.3 0.4 44
2019-07-29 10:00:00 19.4 0 Calma 3 Noroeste 0.2 961.3 0.5 54
2019-07-29 09:00:00 16 0 Calma 0 Calma 0 961.2 0.6 81
2019-07-29 08:00:00 12.8 0 Calma 0 Calma 0 960.9 0.4 97
2019-07-29 07:00:00 11.6 0 Calma 4 Sudoeste 0 960.8 0.2 99
2019-07-29 06:00:00 11.9 0 Calma 3 Sudoeste 0 960.6 -0.4 99
2019-07-29 05:00:00 11.6 0 Calma 0 Calma 0 960.5 -0.7 99
2019-07-29 04:00:00 12.3 0 Calma 0 Calma 0 960.6 -0.9 99
2019-07-29 03:00:00 12.8 0 Calma 0 Calma 0 961 -1.1 99
2019-07-29 02:00:00 13.1 0 Calma 0 Calma 0 961.2 -1.2 98
2019-07-29 01:00:00 13.5 0 Calma 0 Calma 0 961.5 -0.5 98
2019-07-29 00:00:00 14.1 0 Calma 0 Calma 0 962.1 0 95
2019-07-28 23:00:00 14.9 0 Calma 0 Calma 0 962.4 0.3 92
2019-07-28 22:00:00 16.3 0 Calma 6 Este 0 962 -0.2 83
2019-07-28 21:00:00 18.4 0 Calma 8 Nordeste 0 962.1 -0.5 70
2019-07-28 20:00:00 19.6 5 Nordeste 13 Este 0 962.1 -0.9 64
2019-07-28 19:00:00 19.5 6 Este 15 Nordeste 0 962.2 -1.3 62
2019-07-28 18:00:00 20.1 0 Calma 13 Este 0 962.6 -1.3 60
2019-07-28 17:00:00 19.5 3 Este 12 Nordeste 0 963 -1.5 61
2019-07-28 16:00:00 20.7 5 Este 15 Este 0 963.5 -1.1 52
2019-07-28 15:00:00 19.2 3 Sur 12 Sudeste 0 963.9 -0.9 56
2019-07-28 14:00:00 17.5 2 Nordeste 14 Norte 0 964.5 -0.3 67
2019-07-28 13:00:00 16.4 5 Norte 13 Norte 0 964.6 -0.1 75
2019-07-28 12:00:00 16.5 0 Calma 10 Oeste 0 964.8 0.4 78
2019-07-28 11:00:00 16.4 4 Este 16 Oeste 0 964.8 0.5 81
2019-07-28 10:00:00 14.7 6 Oeste 18 Oeste 0 964.7 0.7 94
2019-07-28 09:00:00 13.7 9 Oeste 19 Oeste 0 964.4 0.6 99
2019-07-28 08:00:00 12.7 7 Oeste 17 Oeste 0.1 964.3 0.3 99
2019-07-28 07:00:00 12.6 0 Calma 10 Oeste 0.2 964 -0.1 99
2019-07-28 06:00:00 12.6 2 Oeste 14 Oeste 0.1 963.8 -0.5 99
2019-07-28 05:00:00 12.7 6 Oeste 17 Oeste 0 964 -0.1 99
2019-07-28 04:00:00 12.6 4 Oeste 18 Oeste 0 964.1 -0.2 99
2019-07-28 03:00:00 12.7 9 Oeste 19 Oeste 1.3 964.3 -0.1 99
2019-07-28 02:00:00 12.7 8 Oeste 15 Oeste 0 964.1 -0.2 99
2019-07-28 01:00:00 12.8 8 Oeste 15 Oeste 0 964.3 0.3 99
2019-07-28 00:00:00 12.6 7 Oeste 17 Oeste 0 964.4 1.2 99
2019-07-27 23:00:00 12.7 6 Oeste 23 Sudoeste 0.1 964.3 1.7 99
2019-07-26 12:00:00 16.1 12 Oeste 23 Oeste 0.2 965.1 -- 99
2019-07-26 11:00:00 16.4 11 Oeste -- -- -- 965 -- 99
2019-07-26 10:00:00 -- -- -- -- -- -- -- -- --
2019-07-26 09:00:00 -- -- -- -- -- -- -- -- --
2019-07-26 08:00:00 -- -- -- -- -- -- -- -- --
2019-07-26 07:00:00 -- -- -- -- -- -- -- -- --
2019-07-26 06:00:00 -- -- -- -- -- -- -- -- --
2019-07-26 05:00:00 -- -- -- -- -- -- -- -- --
2019-07-26 04:00:00 17.7 4 Oeste 13 Noroeste 0 966 0.4 94
2019-07-26 03:00:00 18.2 5 Oeste 14 Oeste 0 965.6 -0.2 92
2019-07-26 02:00:00 18.5 3 Noroeste 17 Oeste 0 965.7 0 94
2019-07-26 01:00:00 18.5 6 Noroeste 18 Norte 0.1 965.6 0.9 97
2019-07-26 00:00:00 18.6 6 Noroeste 17 Noroeste 0 965.8 1.7 99
2019-07-25 23:00:00 19.1 4 Oeste 19 Noroeste 0.2 965.7 -- 99
2019-07-25 22:00:00 19.8 10 Noroeste 22 Noroeste 0 964.7 -- 98
2019-07-25 21:00:00 20.3 4 Norte -- -- -- 964.1 -- 98
2019-07-25 20:00:00 -- 3 Noroeste -- -- -- -- -- --
2019-07-25 19:00:00 -- 10 Noroeste -- -- -- -- -- --
2019-07-25 18:00:00 -- 17 Noroeste -- -- -- -- -- --
2019-07-25 17:00:00 -- -- -- -- -- -- -- -- --
2019-07-25 16:00:00 -- -- -- -- -- -- -- -- --
2019-07-25 15:00:00 35.8 4 Sudeste 23 Este 0 961.3 -1 28
2019-07-25 14:00:00 34.5 8 Sudeste 23 Este 0 962 -0.6 30
2019-07-25 13:00:00 33.5 6 Sudeste 23 Este 0 962.4 -0.3 31
2019-07-25 12:00:00 32.7 10 Este 26 Este 0 962.3 -0.5 33
2019-07-25 11:00:00 31.8 6 Este 26 Este 0 962.6 -0.1 34
2019-07-25 10:00:00 29.7 8 Este 20 Este 0 962.7 0.2 37
2019-07-25 09:00:00 28 4 Este 12 Este 0 962.8 0.6 40
2019-07-25 08:00:00 25.7 0 Calma 10 Sur 0 962.7 0.5 43
2019-07-25 07:00:00 25.5 0 Calma 17 Sudeste 0 962.5 0.3 42
2019-07-25 06:00:00 26.4 2 Sudeste 15 Sudeste 0 962.2 0.2 41
2019-07-25 05:00:00 26.4 0 Calma 17 Sudeste 0 962.2 0.2 41
2019-07-25 04:00:00 26.6 0 Calma 14 Este 0 962.2 -0.1 41
2019-07-25 03:00:00 25.2 0 Calma 4 Oeste 0 962 -0.6 46
2019-07-25 02:00:00 24.9 0 Calma 9 Este 0 962 -1.1 49
2019-07-25 01:00:00 23.1 0 Calma 3 Sudeste 0 962.3 -- 62
2019-07-25 00:00:00 23.9 0 Calma 0 Calma 0 962.6 -- 59
2019-07-24 23:00:00 24.5 0 Calma 0 Calma 0 963.1 -- 54
2019-07-24 22:00:00 -- 0 Calma -- -- -- -- -- --
2019-07-24 21:00:00 -- -- -- -- -- -- -- -- --
2019-07-24 20:00:00 -- 0 Calma -- -- -- -- -- --
2019-07-24 19:00:00 -- -- -- -- -- -- -- -- --
2019-07-24 18:00:00 -- -- -- -- -- -- -- -- --
2019-07-24 17:00:00 36.2 8 Sudeste 34 Sudeste 0 962.6 -2 24
2019-07-24 16:00:00 36 7 Sudeste 27 Nordeste 0 963.4 -2 24
2019-07-24 15:00:00 35.2 9 Sudeste 26 Sudeste 0 964 -1.9 25
2019-07-24 14:00:00 33.9 11 Este 22 Sudeste 0 964.6 -1.5 31
2019-07-24 13:00:00 31.6 6 Este 13 Nordeste 0 965.4 -1.2 38
2019-07-24 12:00:00 28.5 2 Nordeste 8 Nordeste 0 965.9 -1.1 45
2019-07-24 11:00:00 24.7 3 Este 8 Este 0 966.1 -0.6 58
2019-07-24 10:00:00 21.2 3 Este 9 Este 0 966.6 0.2 78
2019-07-24 09:00:00 19.4 4 Este 9 Este 0 967 1.4 88
2019-07-24 08:00:00 18 0 Calma 15 Oeste 0 966.7 0.9 94
2019-07-24 07:00:00 17.4 6 Oeste 24 Noroeste 0 966.4 0.1 97
2019-07-24 06:00:00 17.1 0 Calma 4 Sudeste 0 965.6 -1.4 95
2019-07-24 05:00:00 18 0 Calma 6 Sudeste 0 965.8 -1.6 86
2019-07-24 04:00:00 18.8 0 Calma 6 Sudeste 0 966.3 -1.9 82
2019-07-24 03:00:00 19.2 0 Calma 8 Este 0 967 -1.7 82
2019-07-24 02:00:00 19.7 0 Calma 13 Oeste 0 967.4 -0.3 86
2019-07-24 01:00:00 19.7 9 Oeste 40 Oeste 0 968.2 -- 94
2019-07-24 00:00:00 19.9 24 Oeste 45 Oeste 0 968.7 -- 90
2019-07-23 23:00:00 21 0 Calma 28 Oeste 0 967.7 -- 72
2019-07-23 22:00:00 -- -- -- -- -- -- -- -- --
2019-07-23 21:00:00 -- 10 Oeste 23 Oeste 0 -- -- --
2019-07-23 20:00:00 -- -- -- -- -- -- -- -- --
2019-07-23 19:00:00 -- -- -- -- -- -- -- -- --
2019-07-23 18:00:00 -- 6 Sudeste 22 Este 0 -- -- --
2019-07-23 17:00:00 36.8 8 Sudeste 21 Este 0 964.4 -1.6 22
2019-07-23 16:00:00 34.5 4 Sudeste 22 Este 0 965.2 -1.3 25
2019-07-23 15:00:00 34.4 7 Sudeste 31 Este 0 965.3 -1.4 25
2019-07-23 14:00:00 34.1 9 Este 32 Este 0 966 -1.4 25
2019-07-23 13:00:00 32.6 7 Este 29 Sudeste 0 966.5 -1 26
2019-07-23 12:00:00 32.8 2 Sudoeste 19 Oeste 0 966.7 0 27
2019-07-23 11:00:00 31.6 3 Sudeste 24 Este 0 967.4 0.6 27
2019-07-23 10:00:00 29.1 8 Este 22 Este 0 967.5 0.8 30
2019-07-23 09:00:00 27.1 7 Este 21 Este 0 966.7 0.2 33
2019-07-23 08:00:00 23.5 3 Sudeste 14 Este 0 966.8 -0.1 42
2019-07-23 07:00:00 22 0 Calma 8 Este 0 966.7 -1 49
2019-07-23 06:00:00 21.7 0 Calma 8 Sudoeste 0 966.5 -1.3 55
2019-07-23 05:00:00 19.8 0 Calma 16 Sudoeste 0 966.9 -1.1 69
2019-07-23 04:00:00 19.7 5 Sudoeste 17 Sudoeste 0 967.7 -0.8 95
2019-07-23 03:00:00 19.8 6 Oeste 15 Oeste 0 967.8 -0.1 96
2019-07-23 02:00:00 20.5 0 Calma 32 Oeste 0 968 0 96
2019-07-23 01:00:00 21 13 Oeste 47 Oeste 0 968.5 0.7 95
2019-07-23 00:00:00 22.5 0 Calma 2 Oeste 0 967.9 0.4 91
2019-07-22 23:00:00 23.9 0 Calma 5 Oeste 0 968 0.7 85
2019-07-22 22:00:00 25.2 0 Calma 8 Norte 0 967.8 0.4 79
2019-07-22 21:00:00 28.1 0 Calma 9 Noroeste 0 967.5 -0.3 63
2019-07-22 20:00:00 31.2 4 Norte 12 Noroeste 0 967.3 -0.9 49
2019-07-22 19:00:00 34.7 4 Sudeste 17 Este 0 967.4 -1.2 28
2019-07-22 18:00:00 35.1 8 Este 25 Este 0 967.8 -1.6 27
2019-07-22 17:00:00 35.1 7 Este 24 Este 0 968.2 -1.9 28
2019-07-22 16:00:00 34.1 5 Este 19 Sudeste 0 968.6 -2.2 31
2019-07-22 15:00:00 31.8 7 Este 16 Este 0 969.4 -1.7 37
2019-07-22 14:00:00 30.2 6 Este 16 Este 0 970.1 -1.6 42
2019-07-22 13:00:00 27.3 5 Sudeste 11 Sudeste 0 970.8 -1.3 48
2019-07-22 12:00:00 24.5 3 Este 11 Nordeste 0 971.1 -1.2 58
2019-07-22 11:00:00 22.1 3 Sudeste 9 Este 0 971.7 -0.6 71
2019-07-22 10:00:00 18.8 0 Calma 5 Oeste 0 972.1 -0.3 92
2019-07-22 09:00:00 16.9 0 Calma 3 Oeste 0 972.3 -0.3 98
2019-07-22 08:00:00 16.2 0 Calma 0 Calma 0 972.3 -0.3 98
2019-07-22 07:00:00 16.3 0 Calma 2 Sudeste 0 972.4 -0.5 97
2019-07-22 06:00:00 16.8 0 Calma 0 Calma 0 972.6 -0.9 97
2019-07-22 05:00:00 17.5 0 Calma 3 Este 0 972.6 -1.3 94
2019-07-22 04:00:00 18 0 Calma 3 Oeste 0 972.9 -1.4 91
2019-07-22 03:00:00 18.1 0 Calma 2 Este 0 973.5 -0.1 90
2019-07-22 02:00:00 18.4 0 Calma 10 Noroeste 0 973.9 -0.2 89
2019-07-22 01:00:00 18.5 4 Noroeste 12 Norte 0 974.3 0.9 90
2019-07-22 00:00:00 18.6 5 Noroeste 13 Noroeste 0 973.6 0.8 92